Main page
METAR-TAF:

METAR-TAF

Airports :

Conakry International Airport

Conakry, Guinea

latitude: 09-34N, longitude: 013-37W, elevation: 26 m

Current weather observation

The report was made 1 hour and 6 minutes ago, at 01:00 UTC
Calm wind
Temperature 27°C
Humidity 79%
Pressure 1012 hPa
Visibility: 3000 m
mist

METAR: GUCY 220100Z 00000KT 3000 BR NSC 27/23 Q1012 NOSIG

Time: 02:06 (02:06 UTC)

Forecast

The report was made 9 hours and 6 minutes ago, at 17:00 UTC
Forecast valid from 21 at 18 UTC to 22 at 24 UTC
Wind 8 kt from the Northwest
Visibility: 4000 m
haze
Temporary
from 22 at 04 UTC to 22 at 08 UTC
Wind 2 kt from variable directions
Visibility: 2000 m
Few clouds at a height of 1600 ft
mist

TAF: GUCY 211700Z 2118/2224 31008KT 4000 HZ NSC TEMPO 2204/2208 VRB02KT 2000 BR FEW016

Weather observations and forecasts of more than 4000 airports (METAR and TAF reports).

The available stations are represented by yellow and red dots on the map.

Hover mouse over dot to see the name of the station.

Then click to see weather observations and forecasts.

To change the map : click on the green buttons with a black cross to zoom in, on the green button with a dash to zoom out, or on the green arrows for adjacent maps.


METAR-TAF: